Time;durP1;ratioP1;P1;durP2;ratioP2;P2;SDS_P1;SDS_P2;PMS_P1;PMS_P2;Temp;Humidity;BMP_temperature;BMP_pressure;BME280_temperature;BME280_humidity;BME280_pressure;Samples;Min_cycle;Max_cycle;Signal;HPM_P1;HPM_P2
2023/09/20 00:00:32;;;;;;;;;;;;;;;29.59;76.56;100911.31;5022497;28;67109;-38
2023/09/20 00:03:02;;;;;;;;;;;;;;;29.59;77.96;100914.00;5009039;28;70029;-39
2023/09/20 00:05:32;;;;;;;;;;;;;;;29.61;77.63;100920.88;5019339;28;66501;-37
2023/09/20 00:08:03;;;;;;;;;;;;;;;29.65;78.42;100915.91;5020324;28;69450;-37
2023/09/20 00:10:33;;;;;;;;;;;;;;;29.65;78.09;100915.91;5019014;28;67837;-38
2023/09/20 00:13:03;;;;;;;;;;;;;;;29.71;78.67;100920.47;5021153;28;69311;-38
2023/09/20 00:15:32;;;;;;;;;;;;;;;29.70;78.88;100924.22;5015030;28;65638;-37
2023/09/20 00:18:02;;;;;;;;;;;;;;;29.68;78.63;100930.88;5016143;28;70399;-39
2023/09/20 00:20:32;;;;;;;;;;;;;;;29.61;79.53;100938.94;5016637;28;66611;-38
2023/09/20 00:23:04;;;;;;;;;;;;;;;29.57;79.48;100935.00;5017278;28;69973;-38
2023/09/20 00:25:34;;;;;;;;;;;;;;;29.56;79.73;100938.72;5004515;28;67447;-37
2023/09/20 00:28:03;;;;;;;;;;;;;;;29.50;79.45;100935.00;5018611;28;69242;-38
2023/09/20 00:30:33;;;;;;;;;;;;;;;29.48;79.83;100936.28;5016142;28;65494;-38
2023/09/20 00:33:03;;;;;;;;;;;;;;;29.54;79.25;100946.25;5012509;28;69197;-38
2023/09/20 00:35:37;;;;;;;;;;;;;;;29.49;78.95;100943.34;5016406;28;66925;-37
2023/09/20 00:38:07;;;;;;;;;;;;;;;29.52;79.36;100953.72;5001090;28;70318;-39
2023/09/20 00:40:39;;;;;;;;;;;;;;;29.52;79.14;100948.31;5010950;28;66778;-38
2023/09/20 00:43:11;;;;;;;;;;;;;;;29.50;79.45;100955.78;5011643;28;70309;-39
2023/09/20 00:45:41;;;;;;;;;;;;;;;29.49;79.16;100964.97;5010786;28;66832;-40
2023/09/20 00:48:12;;;;;;;;;;;;;;;29.40;79.52;100964.34;5011039;28;70727;-38
2023/09/20 00:50:43;;;;;;;;;;;;;;;29.45;79.50;100967.25;4998199;28;65971;-38
2023/09/20 00:53:14;;;;;;;;;;;;;;;29.44;78.79;100960.16;5015156;28;70650;-39
2023/09/20 00:55:44;;;;;;;;;;;;;;;29.45;79.23;100961.84;5007686;28;68337;-38
2023/09/20 00:58:17;;;;;;;;;;;;;;;29.49;79.08;100964.97;5016508;28;70242;-39
2023/09/20 01:00:47;;;;;;;;;;;;;;;29.46;78.49;100962.69;5021489;28;66884;-39
2023/09/20 01:03:18;;;;;;;;;;;;;;;29.40;78.27;100965.16;5029866;28;70410;-41
2023/09/20 01:05:48;;;;;;;;;;;;;;;29.47;77.72;100964.31;5013133;28;65502;-37
2023/09/20 01:08:20;;;;;;;;;;;;;;;29.52;76.06;100969.94;5007688;28;70024;-39
2023/09/20 01:10:52;;;;;;;;;;;;;;;29.59;74.91;100959.97;5017547;28;66837;-38
2023/09/20 01:13:22;;;;;;;;;;;;;;;29.64;74.72;100968.28;5025051;28;70296;-38
2023/09/20 01:15:52;;;;;;;;;;;;;;;29.69;73.94;100965.78;5017708;28;66322;-38
2023/09/20 01:18:22;;;;;;;;;;;;;;;29.74;73.21;100968.69;5023398;28;70001;-38
2023/09/20 01:20:51;;;;;;;;;;;;;;;29.79;72.87;100963.50;5017459;28;66150;-39
2023/09/20 01:23:22;;;;;;;;;;;;;;;29.83;72.83;100962.00;5019391;28;70226;-38
2023/09/20 01:25:51;;;;;;;;;;;;;;;29.89;72.42;100959.50;4992093;28;66646;-38
2023/09/20 01:28:24;;;;;;;;;;;;;;;29.93;72.63;100966.16;5017231;28;69606;-39
2023/09/20 01:30:54;;;;;;;;;;;;;;;29.96;72.17;100971.16;5017060;28;66608;-38
2023/09/20 01:33:24;;;;;;;;;;;;;;;30.00;72.21;100977.78;5022608;28;70057;-39
2023/09/20 01:35:54;;;;;;;;;;;;;;;30.01;72.24;100985.72;5024200;28;66494;-39
2023/09/20 01:38:25;;;;;;;;;;;;;;;30.06;71.97;100974.22;5021736;28;69897;-38
2023/09/20 01:40:58;;;;;;;;;;;;;;;30.09;71.62;100976.53;5022836;28;67035;-38
2023/09/20 01:43:27;;;;;;;;;;;;;;;30.12;71.79;100968.00;5031604;28;69391;-38
2023/09/20 01:45:57;;;;;;;;;;;;;;;30.16;71.52;100965.69;5022337;28;65291;-38
2023/09/20 01:48:27;;;;;;;;;;;;;;;30.18;71.28;100959.00;5022338;28;67945;-38
2023/09/20 01:50:57;;;;;;;;;;;;;;;30.06;71.42;100937.22;5005303;28;66405;-38
2023/09/20 01:53:27;;;;;;;;;;;;;;;30.24;70.75;100958.19;5025309;28;70128;-39
2023/09/20 01:56:00;;;;;;;;;;;;;;;30.26;71.05;100947.97;5023800;28;66703;-38
2023/09/20 01:58:30;;;;;;;;;;;;;;;30.30;70.64;100944.84;5011055;28;70391;-38
2023/09/20 02:00:59;;;;;;;;;;;;;;;30.33;71.09;100944.41;5026873;28;65634;-39
2023/09/20 02:03:31;;;;;;;;;;;;;;;30.35;70.64;100948.56;5005472;28;69493;-38
2023/09/20 02:06:01;;;;;;;;;;;;;;;30.39;70.78;100954.38;5021432;28;66873;-39
2023/09/20 02:08:30;;;;;;;;;;;;;;;30.42;70.49;100953.94;5022316;28;69665;-38
2023/09/20 02:11:00;;;;;;;;;;;;;;;30.44;70.48;100951.84;5013304;28;66950;-39
2023/09/20 02:13:29;;;;;;;;;;;;;;;30.46;70.68;100944.34;4997086;28;69659;-38
2023/09/20 02:15:59;;;;;;;;;;;;;;;30.49;70.40;100944.75;5010177;28;66121;-39
2023/09/20 02:18:29;;;;;;;;;;;;;;;30.53;70.04;100945.13;5010103;28;69284;-39
2023/09/20 02:20:59;;;;;;;;;;;;;;;30.56;70.42;100939.28;5013083;28;65918;-39
2023/09/20 02:23:33;;;;;;;;;;;;;;;30.58;69.99;100937.19;5022200;28;70733;-39
2023/09/20 02:26:12;;;;;;;;;;;;;;;30.61;69.90;100942.19;5007920;28;66215;-40
2023/09/20 02:28:44;;;;;;;;;;;;;;;30.64;69.91;100940.91;5007733;28;69364;-40
2023/09/20 02:31:18;;;;;;;;;;;;;;;30.66;69.53;100939.66;5027480;28;65061;-38
2023/09/20 02:33:47;;;;;;;;;;;;;;;30.69;69.45;100944.63;5022668;28;70157;-40
2023/09/20 02:36:17;;;;;;;;;;;;;;;30.71;69.63;100937.13;5024159;28;66901;-40
2023/09/20 02:38:46;;;;;;;;;;;;;;;30.75;69.51;100945.63;5020143;28;68971;-38
2023/09/20 02:41:16;;;;;;;;;;;;;;;30.78;69.89;100941.66;5009926;28;66639;-40
2023/09/20 02:43:46;;;;;;;;;;;;;;;30.79;69.70;100936.03;5001593;28;69912;-39
2023/09/20 02:46:15;;;;;;;;;;;;;;;30.84;69.72;100938.09;5001890;28;65157;-41
2023/09/20 02:48:45;;;;;;;;;;;;;;;30.86;69.15;100925.19;5021060;28;70316;-38
2023/09/20 02:51:14;;;;;;;;;;;;;;;30.89;69.42;100919.31;5021442;28;66370;-39
2023/09/20 02:53:44;;;;;;;;;;;;;;;30.92;69.26;100916.19;5003234;28;69758;-38
2023/09/20 02:56:14;;;;;;;;;;;;;;;30.94;69.06;100911.38;5021000;28;65506;-39
2023/09/20 02:58:48;;;;;;;;;;;;;;;30.97;68.88;100908.22;5025904;28;69084;-39
2023/09/20 03:01:18;;;;;;;;;;;;;;;30.99;69.20;100908.03;5004336;28;66358;-39
2023/09/20 03:03:49;;;;;;;;;;;;;;;31.02;69.09;100905.69;4998466;28;69915;-38
2023/09/20 03:06:19;;;;;;;;;;;;;;;31.05;69.00;100904.41;5010797;28;66592;-38
2023/09/20 03:08:49;;;;;;;;;;;;;;;31.06;69.20;100906.88;5020828;28;70478;-38
2023/09/20 03:11:21;;;;;;;;;;;;;;;31.09;68.82;100901.06;5002770;28;66493;-41
2023/09/20 03:13:50;;;;;;;;;;;;;;;31.13;68.68;100893.31;5013270;28;69831;-39
2023/09/20 03:16:20;;;;;;;;;;;;;;;31.15;68.80;100894.75;5004277;28;64370;-39
2023/09/20 03:18:50;;;;;;;;;;;;;;;31.17;68.85;100887.22;4989484;28;70509;-39
2023/09/20 03:21:19;;;;;;;;;;;;;;;31.20;68.96;100885.09;5014612;28;66570;-38
2023/09/20 03:23:49;;;;;;;;;;;;;;;31.24;68.52;100878.22;5011394;28;70046;-38
2023/09/20 03:26:19;;;;;;;;;;;;;;;31.25;68.87;100883.38;5011228;28;66813;-37
2023/09/20 03:28:48;;;;;;;;;;;;;;;31.29;68.68;100883.78;5005349;28;69999;-38
2023/09/20 03:31:22;;;;;;;;;;;;;;;31.31;68.40;100887.09;5005095;28;67007;-39
2023/09/20 03:33:53;;;;;;;;;;;;;;;31.33;68.39;100882.28;5025136;28;70197;-38
2023/09/20 03:36:26;;;;;;;;;;;;;;;31.35;68.28;100877.47;5000270;28;66150;-38
2023/09/20 03:38:57;;;;;;;;;;;;;;;31.37;68.20;100875.38;4997126;28;70250;-38
2023/09/20 03:41:29;;;;;;;;;;;;;;;31.39;68.19;100889.53;5021173;28;66313;-39
2023/09/20 03:43:58;;;;;;;;;;;;;;;31.40;68.34;100874.97;5015699;28;68573;-38
2023/09/20 03:46:28;;;;;;;;;;;;;;;31.43;68.02;100873.69;5013434;28;66681;-39
2023/09/20 03:48:59;;;;;;;;;;;;;;;31.44;68.13;100876.16;4990127;28;70759;-38
2023/09/20 03:51:28;;;;;;;;;;;;;;;31.46;68.23;100871.34;5018234;28;66607;-38
2023/09/20 03:53:58;;;;;;;;;;;;;;;31.49;68.19;100862.75;5009799;28;70330;-38
2023/09/20 03:56:30;;;;;;;;;;;;;;;31.51;67.87;100866.06;5015170;28;58610;-39
2023/09/20 03:59:00;;;;;;;;;;;;;;;31.53;68.21;100850.38;5014926;28;70157;-39
2023/09/20 04:01:30;;;;;;;;;;;;;;;31.54;68.00;100848.53;5004826;28;65139;-39
2023/09/20 04:04:03;;;;;;;;;;;;;;;31.56;67.77;100852.66;4994692;28;70007;-39
2023/09/20 04:06:33;;;;;;;;;;;;;;;31.58;67.99;100849.72;5013082;28;66346;-39
2023/09/20 04:09:09;;;;;;;;;;;;;;;31.60;67.70;100832.19;4999377;28;69555;-38
2023/09/20 04:11:40;;;;;;;;;;;;;;;31.61;67.88;100844.66;4997378;28;66916;-38
2023/09/20 04:14:10;;;;;;;;;;;;;;;31.64;67.44;100826.31;5004886;28;69960;-39
2023/09/20 04:16:40;;;;;;;;;;;;;;;31.66;67.59;100829.63;4990241;28;66796;-39
2023/09/20 04:19:09;;;;;;;;;;;;;;;31.68;67.23;100827.47;5002500;28;69909;-38
2023/09/20 04:21:39;;;;;;;;;;;;;;;31.71;67.27;100821.63;5014944;28;65840;-39
2023/09/20 04:24:08;;;;;;;;;;;;;;;31.73;67.32;100824.94;5001305;28;70517;-40
2023/09/20 04:26:38;;;;;;;;;;;;;;;31.76;67.38;100808.19;5014264;28;65568;-38
2023/09/20 04:29:07;;;;;;;;;;;;;;;31.78;67.19;100800.66;5001124;28;70414;-39
2023/09/20 04:31:37;;;;;;;;;;;;;;;31.80;67.08;100799.38;4994641;28;66238;-39
2023/09/20 04:34:10;;;;;;;;;;;;;;;31.84;67.00;100805.16;5011603;28;70212;-39
2023/09/20 04:36:40;;;;;;;;;;;;;;;31.86;67.25;100789.50;5004720;28;66691;-39
2023/09/20 04:39:11;;;;;;;;;;;;;;;31.89;66.93;100791.75;5025680;28;70176;-39
2023/09/20 04:41:41;;;;;;;;;;;;;;;31.92;66.84;100791.31;5018642;28;66147;-39
2023/09/20 04:44:13;;;;;;;;;;;;;;;31.95;66.79;100784.63;5030051;28;70231;-38
2023/09/20 04:46:43;;;;;;;;;;;;;;;31.97;66.53;100777.91;5009598;28;65461;-40
2023/09/20 04:49:13;;;;;;;;;;;;;;;32.00;66.39;100776.63;5016064;28;70554;-39
2023/09/20 04:51:43;;;;;;;;;;;;;;;32.02;66.21;100775.31;5021282;28;66168;-40
2023/09/20 04:54:14;;;;;;;;;;;;;;;32.04;66.09;100772.41;5014100;28;70738;-41
2023/09/20 04:56:47;;;;;;;;;;;;;;;32.06;66.03;100767.53;5011070;28;66743;-40
2023/09/20 04:59:19;;;;;;;;;;;;;;;32.09;66.08;100771.69;5030025;28;70123;-39
2023/09/20 05:01:51;;;;;;;;;;;;;;;32.10;66.04;100760.63;5019713;28;66244;-40
2023/09/20 05:04:21;;;;;;;;;;;;;;;32.13;66.03;100759.31;5016567;28;70390;-39
2023/09/20 05:06:53;;;;;;;;;;;;;;;32.16;65.86;100759.69;5018866;28;66531;-37
2023/09/20 05:09:23;;;;;;;;;;;;;;;32.18;65.67;100756.72;5011821;28;70353;-39
2023/09/20 05:11:53;;;;;;;;;;;;;;;32.20;65.45;100751.91;5013293;28;66686;-38
2023/09/20 05:14:23;;;;;;;;;;;;;;;32.22;65.64;100749.78;5008899;28;69998;-39
2023/09/20 05:16:53;;;;;;;;;;;;;;;32.24;65.63;100739.53;5003224;28;66434;-40
2023/09/20 05:19:25;;;;;;;;;;;;;;;32.27;65.45;100728.19;5001582;28;70467;-40
2023/09/20 05:21:57;;;;;;;;;;;;;;;32.29;65.41;100720.66;4999945;28;65892;-38
2023/09/20 05:24:27;;;;;;;;;;;;;;;32.30;65.28;100722.31;4998185;28;70167;-39
2023/09/20 05:26:57;;;;;;;;;;;;;;;32.33;65.43;100715.59;4984751;28;66634;-39
2023/09/20 05:29:27;;;;;;;;;;;;;;;32.35;65.26;100708.88;5013674;28;70456;-39
2023/09/20 05:31:56;;;;;;;;;;;;;;;32.36;65.19;100702.34;5002586;28;66423;-40
2023/09/20 05:34:26;;;;;;;;;;;;;;;32.38;65.33;100700.25;5017506;28;70839;-41
2023/09/20 05:36:56;;;;;;;;;;;;;;;32.40;64.91;100689.97;5007570;28;66585;-39
2023/09/20 05:39:25;;;;;;;;;;;;;;;32.42;65.14;100673.44;5031522;28;70345;-39
2023/09/20 05:41:56;;;;;;;;;;;;;;;32.45;65.00;100676.50;5034863;28;65789;-40
2023/09/20 05:44:26;;;;;;;;;;;;;;;32.47;64.75;100677.13;5022441;28;70456;-38
2023/09/20 05:46:56;;;;;;;;;;;;;;;32.50;64.75;100673.13;5026127;28;66227;-40
2023/09/20 05:49:25;;;;;;;;;;;;;;;32.52;64.86;100667.47;5016568;28;69970;-39
2023/09/20 05:51:56;;;;;;;;;;;;;;;32.54;64.66;100668.03;5015153;28;66851;-38
2023/09/20 05:54:26;;;;;;;;;;;;;;;32.57;64.63;100662.97;5025360;28;69900;-39
2023/09/20 05:56:55;;;;;;;;;;;;;;;32.59;64.67;100651.88;5023143;28;66308;-39
2023/09/20 05:59:26;;;;;;;;;;;;;;;32.60;64.53;100646.22;5026468;28;70216;-39
2023/09/20 06:01:56;;;;;;;;;;;;;;;32.62;64.66;100638.63;5017539;28;65607;-38
2023/09/20 06:04:25;;;;;;;;;;;;;;;32.65;64.34;100631.91;5019535;28;70519;-38
2023/09/20 06:06:55;;;;;;;;;;;;;;;32.66;64.37;100625.41;5010556;28;65426;-39
2023/09/20 06:09:24;;;;;;;;;;;;;;;32.70;64.36;100623.88;5017518;28;70349;-40
2023/09/20 06:11:54;;;;;;;;;;;;;;;32.71;64.33;100614.66;5024463;28;66147;-39
2023/09/20 06:14:24;;;;;;;;;;;;;;;32.74;64.50;100613.38;5017997;28;70334;-39
2023/09/20 06:16:54;;;;;;;;;;;;;;;32.75;64.25;100609.56;5013487;28;66260;-39
2023/09/20 06:19:25;;;;;;;;;;;;;;;32.79;64.36;100606.16;5016405;28;70548;-39
2023/09/20 06:21:55;;;;;;;;;;;;;;;32.80;64.30;100602.34;5016059;28;66527;-38
2023/09/20 06:24:24;;;;;;;;;;;;;;;32.84;64.10;100598.09;5010505;28;69750;-39
2023/09/20 06:26:54;;;;;;;;;;;;;;;32.87;64.01;100597.59;5024463;28;66504;-40
2023/09/20 06:29:24;;;;;;;;;;;;;;;32.88;64.01;100599.28;5011497;28;69849;-40
2023/09/20 06:31:54;;;;;;;;;;;;;;;32.90;63.90;100597.16;5022508;28;65571;-39
2023/09/20 06:34:26;;;;;;;;;;;;;;;32.93;63.87;100588.50;5016705;28;69291;-40
2023/09/20 06:36:56;;;;;;;;;;;;;;;32.97;63.83;100582.59;5019166;28;66511;-39
2023/09/20 06:39:25;;;;;;;;;;;;;;;32.99;63.75;100583.16;5016735;28;70911;-39
2023/09/20 06:41:57;;;;;;;;;;;;;;;33.03;63.63;100576.22;5028748;28;66473;-38
2023/09/20 06:44:35;;;;;;;;;;;;;;;33.05;63.45;100568.66;4999899;28;70499;-39
2023/09/20 06:47:06;;;;;;;;;;;;;;;33.07;63.69;100569.22;5014586;28;66785;-40
2023/09/20 06:49:38;;;;;;;;;;;;;;;33.10;63.68;100569.56;5018911;28;70135;-38
2023/09/20 06:52:08;;;;;;;;;;;;;;;33.13;63.45;100577.22;5015888;28;66728;-39
2023/09/20 06:54:38;;;;;;;;;;;;;;;33.17;63.43;100585.72;5012289;28;70521;-40
2023/09/20 06:57:13;;;;;;;;;;;;;;;33.18;63.28;100576.47;5011518;28;66876;-39
2023/09/20 06:59:44;;;;;;;;;;;;;;;33.19;63.31;100572.72;5020716;28;69323;-39
2023/09/20 07:02:16;;;;;;;;;;;;;;;33.21;63.17;100558.88;5009681;28;66318;-39
2023/09/20 07:04:48;;;;;;;;;;;;;;;33.23;63.24;100556.75;5013717;28;70288;-39
2023/09/20 07:07:18;;;;;;;;;;;;;;;33.24;62.80;100553.78;5004625;28;66196;-39
2023/09/20 07:09:48;;;;;;;;;;;;;;;33.25;63.15;100550.00;5020180;28;70257;-39
2023/09/20 07:12:17;;;;;;;;;;;;;;;33.27;63.12;100542.44;5017177;28;66201;-38
2023/09/20 07:14:47;;;;;;;;;;;;;;;33.28;62.86;100541.34;5010072;28;70747;-39
2023/09/20 07:17:17;;;;;;;;;;;;;;;33.28;62.90;100538.63;5021736;28;67105;-38
2023/09/20 07:19:47;;;;;;;;;;;;;;;33.31;63.02;100542.75;5018965;28;70355;-38
2023/09/20 07:22:17;;;;;;;;;;;;;;;33.31;62.87;100538.13;5001987;28;66587;-39
2023/09/20 07:24:47;;;;;;;;;;;;;;;33.32;62.60;100533.50;5002658;28;70472;-39
2023/09/20 07:27:18;;;;;;;;;;;;;;;33.32;63.02;100534.38;5006321;28;66617;-39
2023/09/20 07:29:49;;;;;;;;;;;;;;;33.32;62.88;100523.50;5015975;28;69713;-38
2023/09/20 07:32:18;;;;;;;;;;;;;;;33.33;62.99;100513.44;5021208;28;66395;-39
2023/09/20 07:34:48;;;;;;;;;;;;;;;33.34;62.91;100520.50;5019523;28;69823;-39
2023/09/20 07:37:17;;;;;;;;;;;;;;;33.35;62.79;100512.13;5017613;28;67152;-38
2023/09/20 07:39:50;;;;;;;;;;;;;;;33.38;62.76;100505.38;5008861;28;69182;-39
2023/09/20 07:42:20;;;;;;;;;;;;;;;33.37;62.54;100496.38;5026081;28;66543;-39
2023/09/20 07:44:50;;;;;;;;;;;;;;;33.37;62.90;100499.09;5015818;28;69008;-39
2023/09/20 07:47:20;;;;;;;;;;;;;;;33.38;62.93;100495.31;5025069;28;65468;-38
2023/09/20 07:49:50;;;;;;;;;;;;;;;33.40;62.70;100480.63;5019442;28;69384;-39
2023/09/20 07:52:20;;;;;;;;;;;;;;;33.44;62.68;100473.66;5020287;28;66100;-39
2023/09/20 07:54:50;;;;;;;;;;;;;;;33.46;62.43;100471.47;5019160;28;69967;-40
2023/09/20 07:57:22;;;;;;;;;;;;;;;33.51;62.36;100466.13;5036802;28;66700;-39
2023/09/20 07:59:53;;;;;;;;;;;;;;;33.53;62.67;100464.03;5022705;28;70228;-40
2023/09/20 08:02:22;;;;;;;;;;;;;;;33.54;62.38;100457.50;5012861;28;65933;-37
2023/09/20 08:04:54;;;;;;;;;;;;;;;33.57;62.69;100465.16;5021923;28;69856;-39
2023/09/20 08:07:23;;;;;;;;;;;;;;;33.59;62.50;100468.47;5018676;28;65496;-39
2023/09/20 08:09:53;;;;;;;;;;;;;;;33.59;62.66;100469.28;5014470;28;69771;-38
2023/09/20 08:12:22;;;;;;;;;;;;;;;33.59;62.59;100469.28;5018718;28;66812;-39
2023/09/20 08:14:52;;;;;;;;;;;;;;;33.62;62.23;100469.88;5008451;28;70384;-38
2023/09/20 08:20:13;;;;;;;;;;;;;;;33.63;62.35;100469.63;5016352;28;70295;-40
2023/09/20 09:02:00;;;;;;;;;;;;;;;33.79;62.88;100443.47;5017678;28;65683;-38
2023/09/20 09:04:30;;;;;;;;;;;;;;;33.79;62.67;100440.72;5026112;28;69960;-39
2023/09/20 09:07:00;;;;;;;;;;;;;;;33.85;62.76;100444.34;5018157;28;66922;-38
2023/09/20 09:09:29;;;;;;;;;;;;;;;33.84;62.64;100443.53;5018834;28;70066;-39
2023/09/20 09:11:59;;;;;;;;;;;;;;;33.88;62.71;100449.28;5016456;28;66766;-38
2023/09/20 09:14:28;;;;;;;;;;;;;;;33.88;63.05;100443.84;5022716;28;70372;-39
2023/09/20 09:17:03;;;;;;;;;;;;;;;33.90;62.94;100441.69;5023783;28;66275;-39
2023/09/20 09:19:33;;;;;;;;;;;;;;;33.66;65.54;100444.66;5017126;28;69717;-38
2023/09/20 09:22:02;;;;;;;;;;;;;;;33.44;66.55;100438.31;4995803;28;65742;-38
2023/09/20 09:24:45;;;;;;;;;;;;;;;33.35;67.06;100443.34;5010931;28;70599;-40
2023/09/20 09:27:15;;;;;;;;;;;;;;;33.27;67.71;100450.00;5017765;28;65316;-38
2023/09/20 09:29:46;;;;;;;;;;;;;;;33.30;68.24;100452.22;5022609;28;69561;-38
2023/09/20 09:32:17;;;;;;;;;;;;;;;33.25;68.21;100452.13;5013753;28;66405;-38
2023/09/20 09:34:47;;;;;;;;;;;;;;;33.31;68.31;100453.03;5013615;28;70478;-40
2023/09/20 09:37:17;;;;;;;;;;;;;;;33.29;68.47;100460.63;5019545;28;65925;-40
2023/09/20 09:39:58;;;;;;;;;;;;;;;33.25;68.60;100462.19;4995307;28;69307;-37
2023/09/20 09:42:29;;;;;;;;;;;;;;;33.29;68.89;100457.91;5012961;28;66590;-37
2023/09/20 09:44:59;;;;;;;;;;;;;;;33.30;68.91;100460.38;5001804;28;69276;-38
2023/09/20 09:47:30;;;;;;;;;;;;;;;33.31;68.95;100451.13;5014381;28;66355;-38
2023/09/20 09:50:01;;;;;;;;;;;;;;;33.34;68.68;100461.53;5020973;28;69539;-38
2023/09/20 09:52:31;;;;;;;;;;;;;;;33.29;69.22;100458.75;5012600;28;66423;-40
2023/09/20 09:55:01;;;;;;;;;;;;;;;33.32;68.67;100458.25;5019918;28;70140;-38
2023/09/20 09:57:30;;;;;;;;;;;;;;;33.33;68.80;100465.31;5029944;28;65413;-37
2023/09/20 10:00:01;;;;;;;;;;;;;;;33.36;68.71;100474.88;5006866;28;70645;-40
2023/09/20 10:02:41;;;;;;;;;;;;;;;33.36;69.04;100483.03;5016745;28;67070;-37
2023/09/20 10:05:13;;;;;;;;;;;;;;;33.31;68.86;100483.75;5014787;28;70289;-38
2023/09/20 10:07:45;;;;;;;;;;;;;;;33.34;69.05;100488.72;5010642;28;67020;-37
2023/09/20 10:10:16;;;;;;;;;;;;;;;33.34;68.73;100480.56;5019729;28;69776;-38
2023/09/20 10:12:46;;;;;;;;;;;;;;;33.33;68.87;100491.69;5017180;28;65986;-39
2023/09/20 10:15:16;;;;;;;;;;;;;;;33.36;69.03;100486.56;5011498;28;69598;-39
2023/09/20 10:17:51;;;;;;;;;;;;;;;33.38;69.09;100495.31;5013012;28;66840;-38
2023/09/20 10:20:22;;;;;;;;;;;;;;;33.46;69.13;100495.97;5008834;28;70105;-39
2023/09/20 10:22:52;;;;;;;;;;;;;;;33.42;68.68;100505.69;5017609;28;64854;-39
2023/09/20 10:25:29;;;;;;;;;;;;;;;33.36;68.85;100515.66;5012034;28;70616;-39
2023/09/20 10:28:02;;;;;;;;;;;;;;;33.38;68.91;100522.50;5015484;28;66831;-39
2023/09/20 10:30:34;;;;;;;;;;;;;;;33.46;68.19;100534.03;5002036;28;69811;-38
2023/09/20 10:33:05;;;;;;;;;;;;;;;33.51;68.25;100536.84;5016247;28;66907;-39
2023/09/20 10:35:34;;;;;;;;;;;;;;;33.56;67.75;100542.41;5019584;28;69500;-38
2023/09/20 10:38:08;;;;;;;;;;;;;;;33.62;67.57;100538.69;5013336;28;66655;-40
2023/09/20 10:40:48;;;;;;;;;;;;;;;33.60;67.43;100540.84;5029357;28;70051;-40
2023/09/20 10:43:25;;;;;;;;;;;;;;;33.56;67.12;100545.13;5012654;28;66530;-37
2023/09/20 10:45:57;;;;;;;;;;;;;;;33.51;67.55;100547.72;5015346;28;70348;-37
2023/09/20 10:48:30;;;;;;;;;;;;;;;33.48;67.70;100537.34;5015893;28;65828;-38
2023/09/20 10:51:03;;;;;;;;;;;;;;;33.42;67.69;100543.75;5019879;28;69150;-38
2023/09/20 10:53:56;;;;;;;;;;;;;;;33.46;67.89;100561.22;5020621;28;66612;-37
2023/09/20 10:56:44;;;;;;;;;;;;;;;33.44;67.57;100557.94;5008366;28;70743;-38
2023/09/20 10:59:17;;;;;;;;;;;;;;;33.49;67.59;100566.16;5019771;28;65303;-38
2023/09/20 11:01:53;;;;;;;;;;;;;;;33.52;67.51;100571.13;5017976;28;70263;-39
2023/09/20 11:04:26;;;;;;;;;;;;;;;33.57;67.58;100573.94;5018555;28;66944;-37
2023/09/20 11:06:59;;;;;;;;;;;;;;;33.68;66.99;100574.94;5020241;28;70655;-38
2023/09/20 11:09:33;;;;;;;;;;;;;;;33.74;66.75;100587.56;5031868;28;66712;-38
2023/09/20 11:12:06;;;;;;;;;;;;;;;33.77;65.99;100601.50;5026986;28;70531;-37
2023/09/20 11:14:38;;;;;;;;;;;;;;;33.80;66.02;100617.34;5022024;28;66064;-38
2023/09/20 11:17:13;;;;;;;;;;;;;;;33.81;65.93;100629.03;5017345;28;70085;-39
2023/09/20 11:19:43;;;;;;;;;;;;;;;33.81;66.44;100638.03;5022288;28;66857;-38
2023/09/20 11:22:18;;;;;;;;;;;;;;;33.81;66.26;100632.56;5021048;28;70142;-38
2023/09/20 11:24:48;;;;;;;;;;;;;;;33.80;66.04;100628.22;5022283;28;67230;-38
2023/09/20 11:27:17;;;;;;;;;;;;;;;33.78;66.39;100624.91;5026887;28;70441;-39
2023/09/20 11:29:49;;;;;;;;;;;;;;;33.76;66.48;100616.16;5021731;28;65238;-39
2023/09/20 11:32:22;;;;;;;;;;;;;;;33.75;66.53;100611.81;5020095;28;70614;-40
2023/09/20 11:34:51;;;;;;;;;;;;;;;33.74;66.09;100623.78;5021731;28;65556;-42
2023/09/20 11:37:22;;;;;;;;;;;;;;;33.73;66.64;100626.72;5023778;28;70501;-38
2023/09/20 11:39:55;;;;;;;;;;;;;;;33.71;66.51;100629.69;5022269;28;65833;-38
2023/09/20 11:42:26;;;;;;;;;;;;;;;33.70;66.72;100633.47;5023604;28;69938;-38
2023/09/20 11:44:57;;;;;;;;;;;;;;;33.66;66.49;100632.34;5019859;28;66525;-39
2023/09/20 11:47:48;;;;;;;;;;;;;;;33.64;67.02;100639.91;5020277;28;69305;-38
2023/09/20 11:50:17;;;;;;;;;;;;;;;33.63;67.16;100648.28;5019683;28;65876;-39
2023/09/20 11:52:48;;;;;;;;;;;;;;;33.58;67.13;100646.31;5028248;28;69919;-38
2023/09/20 11:55:20;;;;;;;;;;;;;;;33.55;67.80;100646.81;5011612;28;67377;-37
2023/09/20 11:57:52;;;;;;;;;;;;;;;33.54;67.37;100639.72;5011906;28;70426;-40
2023/09/20 12:00:25;;;;;;;;;;;;;;;33.52;67.90;100647.28;5003762;28;65353;-38
2023/09/20 12:02:57;;;;;;;;;;;;;;;33.52;67.91;100650.84;5016574;28;69473;-39
2023/09/20 12:05:28;;;;;;;;;;;;;;;33.52;67.37;100642.69;5030586;28;66764;-38
2023/09/20 12:07:59;;;;;;;;;;;;;;;33.51;67.75;100645.59;5016508;28;69140;-38
2023/09/20 12:10:29;;;;;;;;;;;;;;;33.51;67.84;100656.47;5013361;28;65885;-38
2023/09/20 12:12:59;;;;;;;;;;;;;;;33.23;69.49;100671.72;5012299;28;69850;-38
2023/09/20 12:15:29;;;;;;;;;;;;;;;33.06;70.19;100670.84;5008670;28;66569;-37
2023/09/20 12:17:59;;;;;;;;;;;;;;;33.00;70.78;100679.97;5022769;28;70590;-38
2023/09/20 12:20:28;;;;;;;;;;;;;;;32.93;71.34;100677.31;5016227;28;66900;-39
2023/09/20 12:23:01;;;;;;;;;;;;;;;32.89;71.23;100695.19;5011381;28;70058;-40
2023/09/20 12:25:31;;;;;;;;;;;;;;;32.88;71.47;100691.63;4975468;28;66287;-41
2023/09/20 12:28:03;;;;;;;;;;;;;;;32.84;71.93;100704.03;5017246;28;70492;-38
2023/09/20 12:30:33;;;;;;;;;;;;;;;32.81;72.65;100696.34;4994551;28;66147;-40
2023/09/20 12:33:02;;;;;;;;;;;;;;;32.79;72.17;100708.53;4997018;28;69622;-38
2023/09/20 12:35:34;;;;;;;;;;;;;;;32.75;72.98;100701.94;5010386;28;65407;-38
2023/09/20 12:38:04;;;;;;;;;;;;;;;32.73;73.43;100707.59;4983568;28;69705;-38
2023/09/20 12:40:33;;;;;;;;;;;;;;;32.74;73.41;100711.16;5021033;28;67326;-38
2023/09/20 12:43:03;;;;;;;;;;;;;;;32.72;73.25;100705.94;5006567;28;69193;-38
2023/09/20 12:45:33;;;;;;;;;;;;;;;32.73;73.59;100704.88;5018246;28;66094;-38
2023/09/20 12:48:04;;;;;;;;;;;;;;;32.72;73.67;100703.22;5000570;28;69071;-37
2023/09/20 12:50:36;;;;;;;;;;;;;;;32.74;73.56;100709.25;5020765;28;65389;-38
2023/09/20 12:53:09;;;;;;;;;;;;;;;32.76;73.45;100720.69;5000184;28;70083;-38
2023/09/20 12:55:39;;;;;;;;;;;;;;;32.71;74.33;100736.91;5002989;28;66590;-39
2023/09/20 12:58:10;;;;;;;;;;;;;;;32.68;74.42;100742.78;5022253;28;70715;-38
2023/09/20 13:00:40;;;;;;;;;;;;;;;32.70;74.40;100746.09;5022616;28;66552;-37
2023/09/20 13:03:15;;;;;;;;;;;;;;;32.69;74.47;100758.03;5027915;28;69632;-39
2023/09/20 13:05:45;;;;;;;;;;;;;;;32.63;74.57;100769.84;5023346;28;65872;-38
2023/09/20 13:08:19;;;;;;;;;;;;;;;32.57;74.43;100782.47;5023071;28;70060;-38
2023/09/20 13:10:51;;;;;;;;;;;;;;;32.53;74.26;100796.72;5022867;28;66837;-37
2023/09/20 13:13:26;;;;;;;;;;;;;;;32.47;74.04;100791.16;5022144;28;70407;-39
2023/09/20 13:15:57;;;;;;;;;;;;;;;32.46;74.17;100797.66;5021165;28;66412;-37
2023/09/20 13:18:28;;;;;;;;;;;;;;;32.41;74.16;100783.94;5022423;28;69585;-37
2023/09/20 13:20:58;;;;;;;;;;;;;;;32.40;74.09;100785.00;5023792;28;65812;-37
2023/09/20 13:23:29;;;;;;;;;;;;;;;32.38;73.92;100795.25;5020229;28;70551;-39
2023/09/20 13:26:03;;;;;;;;;;;;;;;32.34;74.10;100801.38;5023196;28;66008;-38
2023/09/20 13:28:33;;;;;;;;;;;;;;;32.33;74.21;100808.69;5023953;28;69244;-39
2023/09/20 13:31:03;;;;;;;;;;;;;;;32.28;74.08;100820.25;5024217;28;66788;-40
2023/09/20 13:33:32;;;;;;;;;;;;;;;32.30;73.90;100821.91;5026875;28;69839;-37
2023/09/20 13:36:02;;;;;;;;;;;;;;;32.27;74.04;100823.19;5023850;28;66028;-39